x

Ne Burgeo Bank (44255) Wave Buoy

11:00am - Mon 22nd Sep 2014 All times are ADT. -3 hours from GMT.

  • Sig Wave height 13.4ft
  • Peak Period 8s
  • Wind
    38mph, 47mph gusts
  • Sea Temp 56°f
  • Air Temp 63°f
  • Sea Pressure 1004.6mb
  • Ne Burgeo Bank
  • Ne Burgeo Bank

More Historic Weather Station data

Upgrade to MSW Pro to gain access to the past 30 days of data for over 8000 Wavebouys and Weather Stations around the globe.

Join Pro

Comparision Forecast

View Surf forecast
   
Mon 09/22 11:00am 13.5ft 8s 38 47 mph 1004.6mb 56f 63f
10:00am 13ft 8s 38 49 mph 1005.8mb 56f 63f
9:00am 11ft 7s 36 45 mph 1007.4mb 56f 62f
8:00am 9.5ft 7s 34 45 mph 1009.1mb 56f 62f
7:00am 8.5ft 7s 34 43 mph 1010.1mb 56f 62f
6:00am 7ft 6s 29 36 mph 1011.3mb 56f 62f
5:00am 6.5ft 6s 29 36 mph 1012.6mb 56f 63f
4:00am 5.5ft 7s 22 27 mph 1014mb 56f 61f
3:00am 5ft 7s 18 22 mph 1015.4mb 56f 61f
2:00am 6ft 6s 16 18 mph 1016.5mb 56f 60f
1:00am 6ft 7s 18 20 mph 1017.2mb 56f 60f
12:00am 6.5ft 6s 16 18 mph 1018.2mb 56f 60f
Sun 09/21 11:00pm 7ft 7s 16 18 mph 1018.6mb 56f 60f
10:00pm 7ft 7s 18 20 mph 1018.7mb 56f 60f
9:00pm 7ft 7s 20 25 mph 1018.5mb 56f 61f
8:00pm 7ft 7s 22 27 mph 1017.9mb 56f 60f
7:00pm 7ft 8s 18 20 mph 1018mb 56f 60f
6:00pm 7ft 7s 18 22 mph 1017.9mb 56f 60f
5:00pm 7ft 7s 20 27 mph 1017.8mb 56f 61f
4:00pm 7.5ft 8s 20 22 mph 1017.9mb 56f 60f
3:00pm 8ft 8s 22 25 mph 1018mb 56f 60f
2:00pm 8ft 7s 22 27 mph 1018.3mb 56f 60f
1:00pm 8ft 8s 18 22 mph 1018.8mb 56f 60f
12:00pm 9ft 8s 20 25 mph 1019.1mb 56f 59f
11:00am 9ft 8s 22 27 mph 1019.2mb 56f 59f
10:00am 9ft 8s 22 27 mph 1019.3mb 56f 59f
9:00am 10ft 9s 25 31 mph 1018.9mb 56f 59f
8:00am 10ft 8s 22 27 mph 1018.6mb 56f 59f
7:00am 10ft 8s 22 27 mph 1018.2mb 56f 59f
6:00am 10.5ft 8s 22 29 mph 1018mb 56f 59f
5:00am 11.5ft 10s 25 29 mph 1017.9mb 56f 59f
4:00am 11.5ft 10s 25 29 mph 1018.1mb 56f 59f
3:00am 12ft 8s 25 34 mph 1018.5mb 56f 59f
2:00am 11.5ft 9s 25 31 mph 1018.9mb 56f 59f
1:00am 12ft 10s 25 31 mph 1019.4mb 56f 59f
12:00am 12ft 9s 29 36 mph 1019mb 56f 59f
Sat 09/20 11:00pm 11.5ft 8s 27 34 mph 1019.3mb 56f 58f
10:00pm 13ft 10s 29 36 mph 1019.6mb 56f 58f
9:00pm 13ft 9s 29 36 mph 1020mb 56f 58f
8:00pm 12ft 8s 31 40 mph 1020.5mb 57f 58f
7:00pm 12ft 8s 36 45 mph 1020.6mb 57f 58f
6:00pm 11ft 8s 34 40 mph 1021.6mb 57f 57f
5:00pm 9ft 6s 31 38 mph 1022.2mb 57f 57f
4:00pm 8ft 6s 34 43 mph 1022.3mb 58f 56f
3:00pm  -   -  31
mph
1022.5mb - 56f
2:00pm 5.5ft 6s 29 38 mph 1023.2mb 58f 56f
1:00pm 5ft 6s 27 31 mph 1023.7mb 58f 55f
12:00pm 5ft 6s 22 27 mph 1024.1mb 58f 54f
11:00am 5ft 6s 22 27 mph 1025.1mb 58f 55f
10:00am 5.5ft 6s 22 27 mph 1025.4mb 58f 54f
9:00am 6ft 6s 20 27 mph 1025.5mb 58f 54f
8:00am 6.5ft 6s 20 25 mph 1025.2mb 58f 53f
7:00am 7ft 6s 27 31 mph 1025.3mb 58f 52f
6:00am 6.5ft 8s 27 31 mph 1025mb 58f 52f
5:00am 7ft 7s 27 34 mph 1024.6mb 58f 52f
4:00am 6ft 6s 25 31 mph 1023.8mb 58f 51f
3:00am 6.5ft 6s 22 29 mph 1023.4mb 58f 51f
2:00am 6ft 6s 25 31 mph 1022.7mb 58f 51f
1:00am 6ft 6s 27 34 mph 1022.4mb 58f 51f
12:00am 6ft 6s 25 31 mph 1021.7mb 58f 50f
Fri 09/19 11:00pm 5.5ft 4s 27 34 mph 1021.2mb 58f 50f
10:00pm 6ft 6s 25 29 mph 1020.6mb 58f 50f
9:00pm 6ft 8s 27 34 mph 1019.8mb 59f 50f
8:00pm 6ft 5s 27 34 mph 1018.6mb 59f 50f
7:00pm 6ft 6s 27 36 mph 1017.3mb 59f 52f
6:00pm 6ft 8s 27 31 mph 1016.1mb 59f 52f
5:00pm 6.5ft 7s 22 27 mph 1015.4mb 59f 51f
4:00pm 6ft 7s 22 25 mph 1014.7mb 59f 51f
3:00pm 5.5ft 6s 22 29 mph 1014.5mb 59f 50f
2:00pm 6ft 6s 31 36 mph 1014.2mb 59f 49f
1:00pm 5.5ft 6s 22 29 mph 1013.9mb 60f 51f
12:00pm 6ft 6s 27 31 mph 1013.8mb 60f 50f
11:00am 5ft  -  22 29 mph 1013.6mb 60f 52f
10:00am 4.5ft 6s 20 25 mph 1013.5mb 60f 51f
9:00am 4.5ft 12s 18 25 mph 1013.2mb 60f 51f
8:00am 5ft 12s 18 22 mph 1012.6mb 60f 52f
7:00am 5ft 6s 25 29 mph 1012.2mb 60f 52f
6:00am 4.5ft 5s 22 25 mph 1011.4mb 60f 53f
5:00am 4.5ft 12s 20 25 mph 1010.6mb 60f 55f
4:00am 4ft 12s 18 20 mph 1010.2mb 60f 55f
3:00am 4.5ft 12s 18 22 mph 1010.1mb 60f 56f
2:00am 4ft 12s 16 18 mph 1010.3mb 60f 58f
1:00am 4.5ft 9s 11 13 mph 1010.3mb 60f 60f
12:00am 4.5ft 11s 13 18 mph 1010.7mb 60f 61f
Thu 09/18 11:00pm 4.5ft 14s 18 22 mph 1011.1mb 60f 60f
10:00pm 4.5ft 13s 18 20 mph 1011.4mb 60f 60f
9:00pm 4.5ft 12s 18 20 mph 1011.8mb 60f 60f
8:00pm 4.5ft 14s 16 18 mph 1012.3mb 60f 60f
7:00pm 4.5ft 13s 16 18 mph 1012.6mb 60f 60f
6:00pm 4.5ft 13s 13 16 mph 1012.9mb 60f 60f
5:00pm 5ft 14s 13 16 mph 1013.4mb 60f 60f
4:00pm 5ft 13s 13
mph
1013.7mb 60f 60f